« 惜愁-最後の日ホ 石垣空港 2013/3/6 wed | トップページ | FINAL747仙台物語 仙台空港 2014/3/15 sat »

2014/03/14

春雨 百里飛行場 2014/3/14 fri

春と冬がいったりきたり。春は別れの季節でもあります。今日はテレビは鉄に徹して、「E3系こまち」の引退、「あけぼの」のラストランを放送している。

で、霞んだ空ですが、よーく見えるようになったよ。

RJAH 140115Z 05006KT 9999 -SHRA FEW012 BKN015 BKN035 06/03 Q1003 RMK 2CU012 6CU015 7SC035 A2964

茨城空港ターミナルビルにチョット寄ってみたが、百里基地側が見えない魔法のガラスが普通のガラスへ取替え作業に遭遇。

20140314_rjah_00rjah

早速、交換された部分。

20140314_rjah_01rq02

ガラスの無い空間から撮ったが、相手がRFだと機番は、確認できなかった。

20140314_rjah_02rq02

RF-4EJ 501SQ Q02

20140314_rjah_03u723006

72-3006 U-125A HYAKURI-ARS A06

20140314_rjah_04t265679

26-5679 T-4 305SQ E67

20140314_rjah_05u223020

22-3020 U-125A HYAKURI-ARS A20

RJAH 140200Z 02005KT 9999 -SHRA FEW010 BKN015 BKN040 06/04 Q1004

20140314_rjah_06rq01

アラハン前に移動

20140314_rjah_07rq02

20140314_rjah_08ja73nf

20140314_rjah_09ja73nf

SKY791 RJAH-RJCC JA73NF B737-86N

20140314_rjah_10ja73nk

SKY182 RJBE-RJAH JA73NK B737-86N

20140314_rjah_11c751076

75-1076 C-130H 401SQ C76

20140314_rjah_12t165664

16-5664 T-4 302SQ J87

20140314_rjah_13f178439

17-8439 F-4EJk 302SQ J01

20140314_rjah_14f078435

07-8435 F-4EJk 302SQ J02

20140314_rjah_15f178437

17-8437 F-4EJk 302SQ J03

20140314_rjah_16f4x3

RJAH 140300Z 02003KT 340V050 9999 -SHRA FEW015 BKN020 BKN045 07/04 Q1004

20140314_rjah_17t065643

06-5643 T-4 305SQ E77

20140314_rjah_18t065643

20140314_rjah_19ja73nk

SKY183 RJAH-RJBE JA73NK B737-86N

20140314_rjah_20t265679_2

26-5679 T-4 305SQ E85

20140314_rjah_21b6561

20140314_rjah_22b6561

CQH8987 ZSPD-RJAH B-6561 A320-214

20140314_rjah_23f428842

42-8842 F-15J 305SQ E15

20140314_rjah_24f828901

82-8901 F-15J 305SQ E16

20140314_rjah_25f728886

20140314_rjah_26f728886

72-8886 F-15J 305SQ E17

20140314_rjah_27f4x2

20140314_rjah_28f078435

20140314_rjah_29f078435

07-8435 F-4EJk 302SQ J02

20140314_rjah_30f178437

17-8437 F-4EJk 302SQ J03

20140314_rjah_31f178439

17-8439 F-4EJk 302SQ J01

20140314_rjah_32f328823

32-8823 F-15J 305SQ E19

20140314_rjah_33f128051

12-8051 F-15J 305SQ E20

20140314_rjah_34f628870

62-8870 F-15J 305SQ E21

20140314_rjah_35f728893

72-8893 F-15J ADTW M35

20140314_rjah_36t165664

16-5664 T-4 302SQ J87

20140314_rjah_37c751076

20140314_rjah_38c751076

75-3076 C-130H 401SQ C76

RJAH 140400Z VRB04KT 9999 FEW015 BKN050 08/03 Q1003

20140314_rjah_39t165664

16-5664 T-4 302SQ J87

20140314_rjah_40t065791

06-5791 T-4 ADTW M33

20140314_rjah_41t065643

06-5643 T-4 305SQ E77

20140314_rjah_42h

#456 UH-60J HYAKURI-ARS H56

20140314_rjah_43ja6813

JA6813 BK117C1 茨城県警察

20140314_rjah_44u223006

72-3006 U-125A HYAKURI-ARS A-G1

20140314_rjah_45u223020

72-3020 U-125A HYAKURI-ARS A-G2

20140314_rjah_46f628870

62-8870 F-15J 305SQ E21

20140314_rjah_47b6561

CQH6988 RJAH-ZSPD B-6561 A320-214

20140314_rjah_48f15x2

RJAH 140500Z 16003KT 100V230 9999 FEW015 BKN070 09/01 Q1003

20140314_rjah_49f828901

82-8901 F-15J 305SQ E16

20140314_rjah_50f128051

12-8051 F-15DJ 305SQ E20

|

« 惜愁-最後の日ホ 石垣空港 2013/3/6 wed | トップページ | FINAL747仙台物語 仙台空港 2014/3/15 sat »

百里飛行場」カテゴリの記事

コメント

シャイアンさん、コメントありがとうございます。本日の熊本はいかがでしたか? T/Gが1回だけだったと報告が来ているのですが、楽しまれましたか。
小生は、昨日仙台行ってきました。ブログを公開しましたので、また読んでください。

投稿: G4 | 2014/03/16 19:33

九州は来週辺りからようやく春らしい気候になりそうです。

先日の事ですが、HND→OKA NH135 B74への最初で最後の搭乗をしてきました。
シップはJA8960、座席はもちろん74J(窓側ではありませんが。。。)

行きのKMJ→HNDはB78でしたが、ジャンボもまだまだ最新鋭機に負けていないなと感じました。
明日のNRT⇔KMJさよならチャーターフライトでは、最後のお別れをしてきます(涙)

MD90の時といい、KMJは結構恵まれてる?

投稿: シャイアン | 2014/03/15 10:20

コメントを書く



(ウェブ上には掲載しません)


コメントは記事投稿者が公開するまで表示されません。



トラックバック


この記事へのトラックバック一覧です: 春雨 百里飛行場 2014/3/14 fri:

« 惜愁-最後の日ホ 石垣空港 2013/3/6 wed | トップページ | FINAL747仙台物語 仙台空港 2014/3/15 sat »